sensor_id;sensor_type;location;lat;lon;timestamp;P1;durP1;ratioP1;P2;durP2;ratioP2
77089;SDS011;66028;53.558;9.950;2023-11-18T15:31:31;8.77;;;4.00;;
77089;SDS011;66028;53.558;9.950;2023-11-18T15:34:16;5.38;;;2.40;;
77089;SDS011;66028;53.558;9.950;2023-11-18T15:37:04;6.63;;;2.03;;
77089;SDS011;66028;53.558;9.950;2023-11-18T15:39:50;4.45;;;1.92;;
77089;SDS011;66028;53.558;9.950;2023-11-18T16:03:23;5.20;;;1.13;;
77089;SDS011;66028;53.558;9.950;2023-11-18T16:07:04;2.92;;;0.93;;
77089;SDS011;66028;53.558;9.950;2023-11-18T16:09:30;4.95;;;2.25;;
77089;SDS011;66028;53.558;9.950;2023-11-18T16:11:55;4.27;;;2.93;;
77089;SDS011;66028;53.558;9.950;2023-11-18T16:14:20;4.70;;;3.20;;
77089;SDS011;66028;53.558;9.950;2023-11-18T16:16:48;4.72;;;2.97;;
77089;SDS011;66028;53.558;9.950;2023-11-18T16:19:13;5.10;;;3.30;;
77089;SDS011;66028;53.558;9.950;2023-11-18T16:21:41;6.75;;;3.38;;
77089;SDS011;66028;53.558;9.950;2023-11-18T16:24:06;4.75;;;3.28;;
77089;SDS011;66028;53.558;9.950;2023-11-18T16:26:33;5.28;;;3.55;;
77089;SDS011;66028;53.558;9.950;2023-11-18T16:28:59;7.25;;;4.07;;
77089;SDS011;66028;53.558;9.950;2023-11-18T16:31:24;6.50;;;3.53;;
77089;SDS011;66028;53.558;9.950;2023-11-18T16:33:49;8.07;;;4.65;;
77089;SDS011;66028;53.558;9.950;2023-11-18T16:36:19;6.88;;;4.47;;
77089;SDS011;66028;53.558;9.950;2023-11-18T16:38:46;7.03;;;4.03;;
77089;SDS011;66028;53.558;9.950;2023-11-18T16:41:12;7.50;;;3.97;;
77089;SDS011;66028;53.558;9.950;2023-11-18T16:43:37;9.83;;;4.83;;
77089;SDS011;66028;53.558;9.950;2023-11-18T16:46:02;7.73;;;4.50;;
77089;SDS011;66028;53.558;9.950;2023-11-18T16:48:28;8.57;;;4.20;;
77089;SDS011;66028;53.558;9.950;2023-11-18T16:50:53;10.88;;;5.47;;
77089;SDS011;66028;53.558;9.950;2023-11-18T16:53:19;7.70;;;4.43;;
77089;SDS011;66028;53.558;9.950;2023-11-18T16:55:44;9.83;;;4.87;;
77089;SDS011;66028;53.558;9.950;2023-11-18T16:58:10;11.90;;;5.25;;
77089;SDS011;66028;53.558;9.950;2023-11-18T17:00:35;9.40;;;5.17;;
77089;SDS011;66028;53.558;9.950;2023-11-18T17:03:02;11.35;;;5.15;;
77089;SDS011;66028;53.558;9.950;2023-11-18T17:05:29;10.13;;;6.25;;
77089;SDS011;66028;53.558;9.950;2023-11-18T17:07:54;13.18;;;5.88;;
77089;SDS011;66028;53.558;9.950;2023-11-18T17:10:20;12.87;;;6.50;;
77089;SDS011;66028;53.558;9.950;2023-11-18T17:12:47;10.98;;;5.55;;
77089;SDS011;66028;53.558;9.950;2023-11-18T17:15:13;12.05;;;6.05;;
77089;SDS011;66028;53.558;9.950;2023-11-18T17:17:40;12.45;;;5.90;;
77089;SDS011;66028;53.558;9.950;2023-11-18T17:20:13;13.38;;;7.03;;
77089;SDS011;66028;53.558;9.950;2023-11-18T17:22:40;15.43;;;7.30;;
77089;SDS011;66028;53.558;9.950;2023-11-18T17:27:37;13.00;;;7.28;;
77089;SDS011;66028;53.558;9.950;2023-11-18T17:30:04;14.50;;;7.50;;
77089;SDS011;66028;53.558;9.950;2023-11-18T17:32:30;13.30;;;7.22;;
77089;SDS011;66028;53.558;9.950;2023-11-18T17:34:56;12.20;;;6.45;;
77089;SDS011;66028;53.558;9.950;2023-11-18T17:37:22;17.02;;;7.22;;
77089;SDS011;66028;53.558;9.950;2023-11-18T17:39:47;12.30;;;6.35;;
77089;SDS011;66028;53.558;9.950;2023-11-18T17:42:12;15.77;;;7.70;;
77089;SDS011;66028;53.558;9.950;2023-11-18T17:44:38;14.50;;;8.37;;
77089;SDS011;66028;53.558;9.950;2023-11-18T17:47:03;15.50;;;7.93;;
77089;SDS011;66028;53.558;9.950;2023-11-18T17:49:28;18.95;;;8.35;;
77089;SDS011;66028;53.558;9.950;2023-11-18T17:51:55;18.83;;;8.57;;
77089;SDS011;66028;53.558;9.950;2023-11-18T17:54:21;16.05;;;7.57;;
77089;SDS011;66028;53.558;9.950;2023-11-18T17:56:46;16.30;;;8.20;;
77089;SDS011;66028;53.558;9.950;2023-11-18T17:59:12;19.85;;;9.18;;
77089;SDS011;66028;53.558;9.950;2023-11-18T18:01:38;19.13;;;9.90;;
77089;SDS011;66028;53.558;9.950;2023-11-18T18:04:03;19.07;;;8.60;;
77089;SDS011;66028;53.558;9.950;2023-11-18T18:06:28;17.98;;;8.82;;
77089;SDS011;66028;53.558;9.950;2023-11-18T18:08:54;18.50;;;8.85;;
77089;SDS011;66028;53.558;9.950;2023-11-18T18:11:19;19.58;;;8.95;;
77089;SDS011;66028;53.558;9.950;2023-11-18T18:13:45;19.53;;;8.67;;
77089;SDS011;66028;53.558;9.950;2023-11-18T18:16:10;17.17;;;9.27;;
77089;SDS011;66028;53.558;9.950;2023-11-18T18:18:38;15.90;;;8.00;;
77089;SDS011;66028;53.558;9.950;2023-11-18T18:21:03;19.27;;;8.93;;
77089;SDS011;66028;53.558;9.950;2023-11-18T18:23:29;17.63;;;8.50;;
77089;SDS011;66028;53.558;9.950;2023-11-18T18:25:54;18.20;;;9.07;;
77089;SDS011;66028;53.558;9.950;2023-11-18T18:28:19;19.17;;;9.33;;
77089;SDS011;66028;53.558;9.950;2023-11-18T18:30:44;19.63;;;10.00;;
77089;SDS011;66028;53.558;9.950;2023-11-18T18:33:10;17.00;;;9.60;;
77089;SDS011;66028;53.558;9.950;2023-11-18T18:35:35;23.98;;;11.18;;
77089;SDS011;66028;53.558;9.950;2023-11-18T18:38:04;19.52;;;9.18;;
77089;SDS011;66028;53.558;9.950;2023-11-18T18:40:30;17.25;;;8.88;;
77089;SDS011;66028;53.558;9.950;2023-11-18T18:42:56;21.92;;;9.52;;
77089;SDS011;66028;53.558;9.950;2023-11-18T18:45:22;21.02;;;10.25;;
77089;SDS011;66028;53.558;9.950;2023-11-18T18:47:47;19.73;;;9.77;;
77089;SDS011;66028;53.558;9.950;2023-11-18T18:50:13;24.55;;;9.60;;
77089;SDS011;66028;53.558;9.950;2023-11-18T18:52:39;19.77;;;10.57;;
77089;SDS011;66028;53.558;9.950;2023-11-18T18:55:05;24.27;;;11.27;;
77089;SDS011;66028;53.558;9.950;2023-11-18T18:57:31;20.58;;;10.15;;
77089;SDS011;66028;53.558;9.950;2023-11-18T18:59:57;22.25;;;10.07;;
77089;SDS011;66028;53.558;9.950;2023-11-18T19:02:22;22.90;;;11.20;;
77089;SDS011;66028;53.558;9.950;2023-11-18T19:04:48;23.17;;;10.73;;
77089;SDS011;66028;53.558;9.950;2023-11-18T19:07:14;23.08;;;10.15;;
77089;SDS011;66028;53.558;9.950;2023-11-18T19:09:39;25.77;;;12.07;;
77089;SDS011;66028;53.558;9.950;2023-11-18T19:12:07;24.85;;;10.80;;
77089;SDS011;66028;53.558;9.950;2023-11-18T19:14:33;26.30;;;11.98;;
77089;SDS011;66028;53.558;9.950;2023-11-18T19:19:28;22.52;;;9.95;;
77089;SDS011;66028;53.558;9.950;2023-11-18T19:21:54;22.70;;;10.95;;
77089;SDS011;66028;53.558;9.950;2023-11-18T19:24:19;24.10;;;11.40;;
77089;SDS011;66028;53.558;9.950;2023-11-18T19:26:44;22.97;;;10.60;;
77089;SDS011;66028;53.558;9.950;2023-11-18T19:29:10;17.83;;;8.18;;
77089;SDS011;66028;53.558;9.950;2023-11-18T19:31:35;21.23;;;10.87;;
77089;SDS011;66028;53.558;9.950;2023-11-18T19:34:01;23.08;;;10.55;;
77089;SDS011;66028;53.558;9.950;2023-11-18T19:36:26;26.70;;;12.10;;
77089;SDS011;66028;53.558;9.950;2023-11-18T19:38:51;20.63;;;10.13;;
77089;SDS011;66028;53.558;9.950;2023-11-18T19:41:17;26.80;;;11.97;;
77089;SDS011;66028;53.558;9.950;2023-11-18T19:43:42;24.23;;;11.10;;
77089;SDS011;66028;53.558;9.950;2023-11-18T19:46:07;20.58;;;10.52;;
77089;SDS011;66028;53.558;9.950;2023-11-18T19:50:59;21.38;;;10.35;;
77089;SDS011;66028;53.558;9.950;2023-11-18T19:53:24;20.83;;;9.73;;
77089;SDS011;66028;53.558;9.950;2023-11-18T19:55:50;21.73;;;9.35;;
77089;SDS011;66028;53.558;9.950;2023-11-18T19:58:16;19.35;;;9.50;;
77089;SDS011;66028;53.558;9.950;2023-11-18T20:00:41;25.13;;;12.00;;
77089;SDS011;66028;53.558;9.950;2023-11-18T20:03:09;26.23;;;11.50;;
77089;SDS011;66028;53.558;9.950;2023-11-18T20:05:36;24.13;;;11.90;;
77089;SDS011;66028;53.558;9.950;2023-11-18T20:08:01;24.38;;;11.35;;
77089;SDS011;66028;53.558;9.950;2023-11-18T20:10:27;24.75;;;11.18;;
77089;SDS011;66028;53.558;9.950;2023-11-18T20:12:53;23.15;;;11.30;;
77089;SDS011;66028;53.558;9.950;2023-11-18T20:15:19;28.27;;;12.23;;
77089;SDS011;66028;53.558;9.950;2023-11-18T20:17:52;24.63;;;11.27;;
77089;SDS011;66028;53.558;9.950;2023-11-18T20:20:17;36.53;;;14.13;;
77089;SDS011;66028;53.558;9.950;2023-11-18T20:22:43;25.95;;;11.93;;
77089;SDS011;66028;53.558;9.950;2023-11-18T20:25:08;23.23;;;11.13;;
77089;SDS011;66028;53.558;9.950;2023-11-18T20:27:35;19.95;;;11.05;;
77089;SDS011;66028;53.558;9.950;2023-11-18T20:30:01;23.50;;;10.30;;
77089;SDS011;66028;53.558;9.950;2023-11-18T20:32:30;23.73;;;10.20;;
77089;SDS011;66028;53.558;9.950;2023-11-18T20:34:57;24.83;;;11.57;;
77089;SDS011;66028;53.558;9.950;2023-11-18T20:37:22;16.10;;;8.80;;
77089;SDS011;66028;53.558;9.950;2023-11-18T20:39:48;26.20;;;12.13;;
77089;SDS011;66028;53.558;9.950;2023-11-18T20:42:13;26.33;;;11.90;;
77089;SDS011;66028;53.558;9.950;2023-11-18T20:44:38;27.23;;;12.37;;
77089;SDS011;66028;53.558;9.950;2023-11-18T20:47:04;21.55;;;11.32;;
77089;SDS011;66028;53.558;9.950;2023-11-18T20:49:29;23.13;;;10.23;;
77089;SDS011;66028;53.558;9.950;2023-11-18T20:54:22;23.70;;;10.95;;
77089;SDS011;66028;53.558;9.950;2023-11-18T20:56:47;18.33;;;8.63;;
77089;SDS011;66028;53.558;9.950;2023-11-18T20:59:13;23.40;;;10.23;;
77089;SDS011;66028;53.558;9.950;2023-11-18T21:01:38;23.30;;;10.40;;
77089;SDS011;66028;53.558;9.950;2023-11-18T21:04:04;20.52;;;10.07;;
77089;SDS011;66028;53.558;9.950;2023-11-18T21:06:29;27.13;;;11.60;;
77089;SDS011;66028;53.558;9.950;2023-11-18T21:08:55;21.52;;;9.93;;
77089;SDS011;66028;53.558;9.950;2023-11-18T21:11:20;20.27;;;10.43;;
77089;SDS011;66028;53.558;9.950;2023-11-18T21:13:46;21.88;;;10.30;;
77089;SDS011;66028;53.558;9.950;2023-11-18T21:16:13;20.40;;;9.63;;
77089;SDS011;66028;53.558;9.950;2023-11-18T21:18:38;20.77;;;9.67;;
77089;SDS011;66028;53.558;9.950;2023-11-18T21:21:04;19.67;;;9.80;;
77089;SDS011;66028;53.558;9.950;2023-11-18T21:25:58;23.10;;;9.32;;
77089;SDS011;66028;53.558;9.950;2023-11-18T21:28:23;23.87;;;10.47;;
77089;SDS011;66028;53.558;9.950;2023-11-18T21:33:15;25.20;;;11.07;;
77089;SDS011;66028;53.558;9.950;2023-11-18T21:35:40;23.67;;;10.87;;
77089;SDS011;66028;53.558;9.950;2023-11-18T21:38:06;46.50;;;14.85;;
77089;SDS011;66028;53.558;9.950;2023-11-18T21:40:31;22.30;;;10.95;;
77089;SDS011;66028;53.558;9.950;2023-11-18T21:42:57;21.30;;;10.38;;
77089;SDS011;66028;53.558;9.950;2023-11-18T21:45:22;22.88;;;10.77;;
77089;SDS011;66028;53.558;9.950;2023-11-18T21:47:54;24.75;;;11.82;;
77089;SDS011;66028;53.558;9.950;2023-11-18T21:50:22;20.05;;;10.40;;
77089;SDS011;66028;53.558;9.950;2023-11-18T21:52:48;18.20;;;9.40;;
77089;SDS011;66028;53.558;9.950;2023-11-18T21:55:13;23.23;;;9.93;;
77089;SDS011;66028;53.558;9.950;2023-11-18T21:57:39;19.67;;;9.88;;
